sensor_id;sensor_type;location;lat;lon;timestamp;temperature;humidity
1021;DHT22;499;42.648;23.270;2023-08-20T00:01:11;20.20;28.20
1021;DHT22;499;42.648;23.270;2023-08-20T00:03:40;20.10;29.20
1021;DHT22;499;42.648;23.270;2023-08-20T00:06:08;20.00;30.00
1021;DHT22;499;42.648;23.270;2023-08-20T00:08:35;20.10;29.70
1021;DHT22;499;42.648;23.270;2023-08-20T00:11:02;20.10;30.00
1021;DHT22;499;42.648;23.270;2023-08-20T00:13:30;20.00;31.10
1021;DHT22;499;42.648;23.270;2023-08-20T00:15:57;20.00;30.60
1021;DHT22;499;42.648;23.270;2023-08-20T00:18:26;19.90;31.50
1021;DHT22;499;42.648;23.270;2023-08-20T00:20:54;19.80;31.50
1021;DHT22;499;42.648;23.270;2023-08-20T00:23:21;19.90;31.10
1021;DHT22;499;42.648;23.270;2023-08-20T00:25:49;19.90;31.30
1021;DHT22;499;42.648;23.270;2023-08-20T00:28:16;19.80;31.30
1021;DHT22;499;42.648;23.270;2023-08-20T00:30:43;19.80;31.80
1021;DHT22;499;42.648;23.270;2023-08-20T00:33:10;19.70;33.20
1021;DHT22;499;42.648;23.270;2023-08-20T00:35:39;19.70;32.70
1021;DHT22;499;42.648;23.270;2023-08-20T00:38:08;19.70;32.90
1021;DHT22;499;42.648;23.270;2023-08-20T00:40:35;19.80;33.10
1021;DHT22;499;42.648;23.270;2023-08-20T00:43:03;19.70;34.50
1021;DHT22;499;42.648;23.270;2023-08-20T00:45:30;19.70;33.80
1021;DHT22;499;42.648;23.270;2023-08-20T00:47:57;19.70;34.60
1021;DHT22;499;42.648;23.270;2023-08-20T00:50:25;19.70;34.50
1021;DHT22;499;42.648;23.270;2023-08-20T00:52:53;19.70;34.50
1021;DHT22;499;42.648;23.270;2023-08-20T00:55:21;19.60;35.30
1021;DHT22;499;42.648;23.270;2023-08-20T00:57:48;19.70;35.40
1021;DHT22;499;42.648;23.270;2023-08-20T01:00:16;19.70;35.20
1021;DHT22;499;42.648;23.270;2023-08-20T01:02:43;19.70;35.20
1021;DHT22;499;42.648;23.270;2023-08-20T01:05:11;19.70;34.50
1021;DHT22;499;42.648;23.270;2023-08-20T01:07:46;19.70;35.70
1021;DHT22;499;42.648;23.270;2023-08-20T01:10:19;19.60;36.10
1021;DHT22;499;42.648;23.270;2023-08-20T01:12:50;19.60;36.70
1021;DHT22;499;42.648;23.270;2023-08-20T01:15:18;19.60;36.20
1021;DHT22;499;42.648;23.270;2023-08-20T01:17:45;19.60;36.60
1021;DHT22;499;42.648;23.270;2023-08-20T01:20:14;19.60;37.60
1021;DHT22;499;42.648;23.270;2023-08-20T01:22:59;19.70;36.70
1021;DHT22;499;42.648;23.270;2023-08-20T01:25:41;19.60;37.90
1021;DHT22;499;42.648;23.270;2023-08-20T01:28:24;19.60;37.80
1021;DHT22;499;42.648;23.270;2023-08-20T01:30:53;19.70;37.70
1021;DHT22;499;42.648;23.270;2023-08-20T01:33:21;19.80;37.00
1021;DHT22;499;42.648;23.270;2023-08-20T01:35:49;19.80;36.90
1021;DHT22;499;42.648;23.270;2023-08-20T01:38:16;19.80;37.20
1021;DHT22;499;42.648;23.270;2023-08-20T01:40:44;19.70;38.10
1021;DHT22;499;42.648;23.270;2023-08-20T01:43:11;19.50;38.70
1021;DHT22;499;42.648;23.270;2023-08-20T01:45:39;19.40;41.00
1021;DHT22;499;42.648;23.270;2023-08-20T01:48:06;19.50;40.90
1021;DHT22;499;42.648;23.270;2023-08-20T01:50:35;19.50;40.20
1021;DHT22;499;42.648;23.270;2023-08-20T01:53:02;19.50;39.80
1021;DHT22;499;42.648;23.270;2023-08-20T01:55:30;19.50;40.20
1021;DHT22;499;42.648;23.270;2023-08-20T01:57:57;19.50;39.70
1021;DHT22;499;42.648;23.270;2023-08-20T02:00:24;19.50;40.10
1021;DHT22;499;42.648;23.270;2023-08-20T02:02:52;19.50;40.50
1021;DHT22;499;42.648;23.270;2023-08-20T02:05:20;19.60;39.30
1021;DHT22;499;42.648;23.270;2023-08-20T02:07:47;19.70;38.10
1021;DHT22;499;42.648;23.270;2023-08-20T02:10:14;19.80;37.00
1021;DHT22;499;42.648;23.270;2023-08-20T02:12:41;19.70;35.80
1021;DHT22;499;42.648;23.270;2023-08-20T02:15:09;19.70;36.50
1021;DHT22;499;42.648;23.270;2023-08-20T02:17:36;19.60;34.50
1021;DHT22;499;42.648;23.270;2023-08-20T02:20:06;19.70;34.90
1021;DHT22;499;42.648;23.270;2023-08-20T02:22:35;19.80;33.70
1021;DHT22;499;42.648;23.270;2023-08-20T02:25:03;19.80;33.00
1021;DHT22;499;42.648;23.270;2023-08-20T02:27:30;19.80;33.00
1021;DHT22;499;42.648;23.270;2023-08-20T02:29:57;19.80;34.10
1021;DHT22;499;42.648;23.270;2023-08-20T02:32:24;19.70;34.50
1021;DHT22;499;42.648;23.270;2023-08-20T02:34:51;19.70;34.50
1021;DHT22;499;42.648;23.270;2023-08-20T02:37:20;19.60;34.60
1021;DHT22;499;42.648;23.270;2023-08-20T02:39:48;19.50;35.50
1021;DHT22;499;42.648;23.270;2023-08-20T02:42:15;19.50;36.20
1021;DHT22;499;42.648;23.270;2023-08-20T02:44:42;19.30;36.90
1021;DHT22;499;42.648;23.270;2023-08-20T02:47:09;19.30;37.90
1021;DHT22;499;42.648;23.270;2023-08-20T02:49:36;19.20;39.20
1021;DHT22;499;42.648;23.270;2023-08-20T02:52:03;19.20;39.00
1021;DHT22;499;42.648;23.270;2023-08-20T02:54:32;19.30;39.20
1021;DHT22;499;42.648;23.270;2023-08-20T02:57:00;19.20;39.70
1021;DHT22;499;42.648;23.270;2023-08-20T02:59:27;19.10;41.00
1021;DHT22;499;42.648;23.270;2023-08-20T03:01:54;19.00;42.90
1021;DHT22;499;42.648;23.270;2023-08-20T03:04:21;19.00;43.60
1021;DHT22;499;42.648;23.270;2023-08-20T03:06:48;19.10;42.70
1021;DHT22;499;42.648;23.270;2023-08-20T03:09:15;19.10;42.20
1021;DHT22;499;42.648;23.270;2023-08-20T03:11:43;18.90;43.60
1021;DHT22;499;42.648;23.270;2023-08-20T03:14:10;18.90;45.50
1021;DHT22;499;42.648;23.270;2023-08-20T03:16:37;18.90;45.20
1021;DHT22;499;42.648;23.270;2023-08-20T03:19:04;19.00;43.60
1021;DHT22;499;42.648;23.270;2023-08-20T03:21:31;19.00;43.60
1021;DHT22;499;42.648;23.270;2023-08-20T03:23:58;18.90;42.90
1021;DHT22;499;42.648;23.270;2023-08-20T03:26:25;19.00;43.60
1021;DHT22;499;42.648;23.270;2023-08-20T03:28:54;19.10;43.10
1021;DHT22;499;42.648;23.270;2023-08-20T03:31:21;19.10;42.20
1021;DHT22;499;42.648;23.270;2023-08-20T03:33:48;19.00;42.40
1021;DHT22;499;42.648;23.270;2023-08-20T03:36:15;19.00;42.90
1021;DHT22;499;42.648;23.270;2023-08-20T03:38:42;18.90;42.90
1021;DHT22;499;42.648;23.270;2023-08-20T03:41:10;19.00;42.70
1021;DHT22;499;42.648;23.270;2023-08-20T03:43:37;18.90;43.50
1021;DHT22;499;42.648;23.270;2023-08-20T03:46:06;18.90;44.00
1021;DHT22;499;42.648;23.270;2023-08-20T03:48:33;18.80;44.80
1021;DHT22;499;42.648;23.270;2023-08-20T03:51:00;18.70;45.50
1021;DHT22;499;42.648;23.270;2023-08-20T03:53:27;18.80;45.60
1021;DHT22;499;42.648;23.270;2023-08-20T03:55:54;18.90;44.60
1021;DHT22;499;42.648;23.270;2023-08-20T03:58:21;19.00;43.60
1021;DHT22;499;42.648;23.270;2023-08-20T04:00:48;18.90;43.50
1021;DHT22;499;42.648;23.270;2023-08-20T04:03:16;19.00;43.60
1021;DHT22;499;42.648;23.270;2023-08-20T04:05:45;19.10;43.20
1021;DHT22;499;42.648;23.270;2023-08-20T04:08:12;19.10;43.20
1021;DHT22;499;42.648;23.270;2023-08-20T04:10:43;19.30;40.90
1021;DHT22;499;42.648;23.270;2023-08-20T04:13:11;19.30;40.20
1021;DHT22;499;42.648;23.270;2023-08-20T04:15:39;19.30;39.10
1021;DHT22;499;42.648;23.270;2023-08-20T04:18:07;19.30;40.00
1021;DHT22;499;42.648;23.270;2023-08-20T04:20:36;19.30;39.40
1021;DHT22;499;42.648;23.270;2023-08-20T04:23:04;19.40;37.90
1021;DHT22;499;42.648;23.270;2023-08-20T04:25:31;19.50;38.40
1021;DHT22;499;42.648;23.270;2023-08-20T04:27:58;19.60;35.90
1021;DHT22;499;42.648;23.270;2023-08-20T04:30:25;19.60;37.90
1021;DHT22;499;42.648;23.270;2023-08-20T04:32:53;19.70;35.50
1021;DHT22;499;42.648;23.270;2023-08-20T04:35:21;19.70;35.50
1021;DHT22;499;42.648;23.270;2023-08-20T04:37:49;19.80;35.50
1021;DHT22;499;42.648;23.270;2023-08-20T04:40:16;19.90;34.20
1021;DHT22;499;42.648;23.270;2023-08-20T04:42:43;20.10;34.00
1021;DHT22;499;42.648;23.270;2023-08-20T04:45:10;20.20;32.40
1021;DHT22;499;42.648;23.270;2023-08-20T04:47:37;20.30;31.70
1021;DHT22;499;42.648;23.270;2023-08-20T04:50:05;20.40;31.40
1021;DHT22;499;42.648;23.270;2023-08-20T04:52:33;20.60;30.40
1021;DHT22;499;42.648;23.270;2023-08-20T04:55:02;20.60;30.30
1021;DHT22;499;42.648;23.270;2023-08-20T04:57:29;20.80;29.60
1021;DHT22;499;42.648;23.270;2023-08-20T04:59:56;20.90;29.80
1021;DHT22;499;42.648;23.270;2023-08-20T05:02:23;21.10;29.90
1021;DHT22;499;42.648;23.270;2023-08-20T05:04:51;21.30;28.50
1021;DHT22;499;42.648;23.270;2023-08-20T05:07:18;21.40;27.70
1021;DHT22;499;42.648;23.270;2023-08-20T05:09:46;21.20;27.50
1021;DHT22;499;42.648;23.270;2023-08-20T05:12:14;21.20;28.40
1021;DHT22;499;42.648;23.270;2023-08-20T05:14:41;21.30;29.40
1021;DHT22;499;42.648;23.270;2023-08-20T05:17:08;21.20;29.10
1021;DHT22;499;42.648;23.270;2023-08-20T05:19:35;21.30;28.40
1021;DHT22;499;42.648;23.270;2023-08-20T05:22:02;21.40;28.30
1021;DHT22;499;42.648;23.270;2023-08-20T05:24:29;21.60;27.20
1021;DHT22;499;42.648;23.270;2023-08-20T05:27:07;21.70;27.90
1021;DHT22;499;42.648;23.270;2023-08-20T05:29:36;21.80;27.50
1021;DHT22;499;42.648;23.270;2023-08-20T05:32:04;21.90;27.40
1021;DHT22;499;42.648;23.270;2023-08-20T05:34:31;22.00;27.40
1021;DHT22;499;42.648;23.270;2023-08-20T05:36:59;22.20;27.90
1021;DHT22;499;42.648;23.270;2023-08-20T05:39:26;22.30;26.60
1021;DHT22;499;42.648;23.270;2023-08-20T05:41:54;22.60;26.50
1021;DHT22;499;42.648;23.270;2023-08-20T05:44:21;22.70;25.10
1021;DHT22;499;42.648;23.270;2023-08-20T05:46:49;22.70;24.60
1021;DHT22;499;42.648;23.270;2023-08-20T05:49:17;22.70;25.10
1021;DHT22;499;42.648;23.270;2023-08-20T05:51:44;22.70;25.10
1021;DHT22;499;42.648;23.270;2023-08-20T05:54:11;22.90;25.10
1021;DHT22;499;42.648;23.270;2023-08-20T05:56:38;23.00;25.10
1021;DHT22;499;42.648;23.270;2023-08-20T05:59:05;23.00;24.20
1021;DHT22;499;42.648;23.270;2023-08-20T06:01:32;23.10;24.20
1021;DHT22;499;42.648;23.270;2023-08-20T06:04:01;23.10;24.20
1021;DHT22;499;42.648;23.270;2023-08-20T06:06:28;23.20;24.60
1021;DHT22;499;42.648;23.270;2023-08-20T06:08:55;23.30;24.40
1021;DHT22;499;42.648;23.270;2023-08-20T06:11:22;23.40;23.80
1021;DHT22;499;42.648;23.270;2023-08-20T06:13:51;23.40;23.80
1021;DHT22;499;42.648;23.270;2023-08-20T06:16:18;23.40;24.40
1021;DHT22;499;42.648;23.270;2023-08-20T06:18:47;23.40;23.80
1021;DHT22;499;42.648;23.270;2023-08-20T06:21:15;23.50;23.90
1021;DHT22;499;42.648;23.270;2023-08-20T06:23:42;23.60;23.50
1021;DHT22;499;42.648;23.270;2023-08-20T06:26:09;23.80;23.00
1021;DHT22;499;42.648;23.270;2023-08-20T06:28:37;24.00;21.80
1021;DHT22;499;42.648;23.270;2023-08-20T06:31:04;24.20;21.90
1021;DHT22;499;42.648;23.270;2023-08-20T06:33:31;24.40;21.50
1021;DHT22;499;42.648;23.270;2023-08-20T06:35:59;24.50;21.20
1021;DHT22;499;42.648;23.270;2023-08-20T06:38:28;24.60;21.30
1021;DHT22;499;42.648;23.270;2023-08-20T06:40:56;24.70;21.30
1021;DHT22;499;42.648;23.270;2023-08-20T06:43:23;24.90;21.50
1021;DHT22;499;42.648;23.270;2023-08-20T06:45:50;25.10;21.50
1021;DHT22;499;42.648;23.270;2023-08-20T06:48:18;25.30;19.60
1021;DHT22;499;42.648;23.270;2023-08-20T06:50:46;25.40;17.00
1021;DHT22;499;42.648;23.270;2023-08-20T06:53:12;25.50;17.00
1021;DHT22;499;42.648;23.270;2023-08-20T06:55:46;25.60;15.70
1021;DHT22;499;42.648;23.270;2023-08-20T06:58:13;25.60;16.30
1021;DHT22;499;42.648;23.270;2023-08-20T07:00:40;25.70;15.10
1021;DHT22;499;42.648;23.270;2023-08-20T07:03:07;25.70;14.90
1021;DHT22;499;42.648;23.270;2023-08-20T07:05:34;25.80;15.60
1021;DHT22;499;42.648;23.270;2023-08-20T07:08:02;25.80;15.50
1021;DHT22;499;42.648;23.270;2023-08-20T07:10:29;25.90;14.90
1021;DHT22;499;42.648;23.270;2023-08-20T07:12:57;25.90;14.60
1021;DHT22;499;42.648;23.270;2023-08-20T07:15:24;25.90;14.10
1021;DHT22;499;42.648;23.270;2023-08-20T07:17:51;25.80;13.80
1021;DHT22;499;42.648;23.270;2023-08-20T07:20:18;25.90;15.10
1021;DHT22;499;42.648;23.270;2023-08-20T07:22:45;25.90;13.80
1021;DHT22;499;42.648;23.270;2023-08-20T07:25:13;26.00;13.80
1021;DHT22;499;42.648;23.270;2023-08-20T07:27:40;26.00;14.80
1021;DHT22;499;42.648;23.270;2023-08-20T07:33:32;26.10;13.90
1021;DHT22;499;42.648;23.270;2023-08-20T07:39:04;26.20;13.90
1021;DHT22;499;42.648;23.270;2023-08-20T07:41:31;26.20;13.90
1021;DHT22;499;42.648;23.270;2023-08-20T07:44:01;26.30;14.00
1021;DHT22;499;42.648;23.270;2023-08-20T07:46:28;26.40;12.30
1021;DHT22;499;42.648;23.270;2023-08-20T07:48:57;26.40;14.00
1021;DHT22;499;42.648;23.270;2023-08-20T07:51:24;26.60;14.10
1021;DHT22;499;42.648;23.270;2023-08-20T07:53:51;26.70;13.10
1021;DHT22;499;42.648;23.270;2023-08-20T07:56:18;26.70;13.40
1021;DHT22;499;42.648;23.270;2023-08-20T07:58:45;26.70;13.50
1021;DHT22;499;42.648;23.270;2023-08-20T08:01:12;26.60;12.60
1021;DHT22;499;42.648;23.270;2023-08-20T08:03:40;26.50;13.10
1021;DHT22;499;42.648;23.270;2023-08-20T08:06:08;26.60;12.90
1021;DHT22;499;42.648;23.270;2023-08-20T08:08:37;26.50;12.00
1021;DHT22;499;42.648;23.270;2023-08-20T08:11:04;26.50;12.50
1021;DHT22;499;42.648;23.270;2023-08-20T08:13:31;26.60;11.90
1021;DHT22;499;42.648;23.270;2023-08-20T08:15:58;26.60;11.90
1021;DHT22;499;42.648;23.270;2023-08-20T08:18:25;26.60;12.40
1021;DHT22;499;42.648;23.270;2023-08-20T08:20:52;26.70;12.20
1021;DHT22;499;42.648;23.270;2023-08-20T08:23:21;26.70;11.30
1021;DHT22;499;42.648;23.270;2023-08-20T08:25:48;26.90;11.20
1021;DHT22;499;42.648;23.270;2023-08-20T08:28:15;26.90;10.30
1021;DHT22;499;42.648;23.270;2023-08-20T08:30:42;26.90;10.90
1021;DHT22;499;42.648;23.270;2023-08-20T08:33:09;26.90;9.00
1021;DHT22;499;42.648;23.270;2023-08-20T08:35:36;26.90;9.90
1021;DHT22;499;42.648;23.270;2023-08-20T08:38:04;26.90;9.20
1021;DHT22;499;42.648;23.270;2023-08-20T08:40:33;27.00;8.90
1021;DHT22;499;42.648;23.270;2023-08-20T08:43:00;27.20;8.90
1021;DHT22;499;42.648;23.270;2023-08-20T08:45:29;27.30;8.50
1021;DHT22;499;42.648;23.270;2023-08-20T08:47:56;27.30;7.40
1021;DHT22;499;42.648;23.270;2023-08-20T08:50:23;27.20;8.40
1021;DHT22;499;42.648;23.270;2023-08-20T08:52:51;27.30;8.10
1021;DHT22;499;42.648;23.270;2023-08-20T08:55:19;27.30;7.70
1021;DHT22;499;42.648;23.270;2023-08-20T08:57:48;27.30;7.80
1021;DHT22;499;42.648;23.270;2023-08-20T09:00:15;27.40;7.90
1021;DHT22;499;42.648;23.270;2023-08-20T09:02:42;27.50;7.90
1021;DHT22;499;42.648;23.270;2023-08-20T09:05:09;27.50;7.70
1021;DHT22;499;42.648;23.270;2023-08-20T09:07:42;27.50;6.60
1021;DHT22;499;42.648;23.270;2023-08-20T09:10:09;27.70;7.40
1021;DHT22;499;42.648;23.270;2023-08-20T09:12:36;27.80;4.50
1021;DHT22;499;42.648;23.270;2023-08-20T09:15:10;27.80;4.70
1021;DHT22;499;42.648;23.270;2023-08-20T09:17:37;27.90;4.80
1021;DHT22;499;42.648;23.270;2023-08-20T09:20:05;27.90;4.20
1021;DHT22;499;42.648;23.270;2023-08-20T09:22:35;27.90;5.00
1021;DHT22;499;42.648;23.270;2023-08-20T09:25:03;27.80;4.90
1021;DHT22;499;42.648;23.270;2023-08-20T09:27:38;27.70;5.50
1021;DHT22;499;42.648;23.270;2023-08-20T09:30:09;27.80;6.30
1021;DHT22;499;42.648;23.270;2023-08-20T09:32:37;27.70;5.90
1021;DHT22;499;42.648;23.270;2023-08-20T09:35:04;27.70;5.70
1021;DHT22;499;42.648;23.270;2023-08-20T09:37:32;27.70;5.30
1021;DHT22;499;42.648;23.270;2023-08-20T09:39:59;27.70;6.10
1021;DHT22;499;42.648;23.270;2023-08-20T09:42:27;27.90;6.30
1021;DHT22;499;42.648;23.270;2023-08-20T09:44:56;27.90;5.20
1021;DHT22;499;42.648;23.270;2023-08-20T09:47:26;27.90;5.50
1021;DHT22;499;42.648;23.270;2023-08-20T09:49:56;28.10;5.60
1021;DHT22;499;42.648;23.270;2023-08-20T09:52:28;28.20;4.40
1021;DHT22;499;42.648;23.270;2023-08-20T09:55:00;28.20;4.50
1021;DHT22;499;42.648;23.270;2023-08-20T09:57:33;28.30;4.30
1021;DHT22;499;42.648;23.270;2023-08-20T10:00:01;28.30;3.80
1021;DHT22;499;42.648;23.270;2023-08-20T10:02:33;28.10;4.00
1021;DHT22;499;42.648;23.270;2023-08-20T10:05:00;28.10;3.60
1021;DHT22;499;42.648;23.270;2023-08-20T10:07:29;28.20;3.80
1021;DHT22;499;42.648;23.270;2023-08-20T10:09:58;28.30;3.00
1021;DHT22;499;42.648;23.270;2023-08-20T10:12:26;28.30;3.90
1021;DHT22;499;42.648;23.270;2023-08-20T10:14:54;28.20;3.80
1021;DHT22;499;42.648;23.270;2023-08-20T10:17:22;28.30;3.90
1021;DHT22;499;42.648;23.270;2023-08-20T10:19:52;28.50;3.70
1021;DHT22;499;42.648;23.270;2023-08-20T10:22:19;28.50;2.30
1021;DHT22;499;42.648;23.270;2023-08-20T10:24:50;28.50;1.00
1021;DHT22;499;42.648;23.270;2023-08-20T10:27:25;28.50;1.00
1021;DHT22;499;42.648;23.270;2023-08-20T10:29:53;28.70;1.30
1021;DHT22;499;42.648;23.270;2023-08-20T10:32:20;28.80;1.00
1021;DHT22;499;42.648;23.270;2023-08-20T10:35:09;28.90;1.00
1021;DHT22;499;42.648;23.270;2023-08-20T10:37:36;28.90;1.10
1021;DHT22;499;42.648;23.270;2023-08-20T10:40:04;29.00;1.60
1021;DHT22;499;42.648;23.270;2023-08-20T10:42:31;28.80;2.40
1021;DHT22;499;42.648;23.270;2023-08-20T10:45:02;29.00;2.00
1021;DHT22;499;42.648;23.270;2023-08-20T10:47:42;29.00;2.00
1021;DHT22;499;42.648;23.270;2023-08-20T10:50:12;29.00;1.60
1021;DHT22;499;42.648;23.270;2023-08-20T10:52:47;29.10;2.20
1021;DHT22;499;42.648;23.270;2023-08-20T10:55:15;29.20;1.60
1021;DHT22;499;42.648;23.270;2023-08-20T10:57:42;29.20;1.30
1021;DHT22;499;42.648;23.270;2023-08-20T11:00:15;29.10;2.10
1021;DHT22;499;42.648;23.270;2023-08-20T11:02:42;29.20;1.50
1021;DHT22;499;42.648;23.270;2023-08-20T11:05:18;29.20;1.50
1021;DHT22;499;42.648;23.270;2023-08-20T11:07:46;29.20;1.70
1021;DHT22;499;42.648;23.270;2023-08-20T11:10:14;29.20;3.30
1021;DHT22;499;42.648;23.270;2023-08-20T11:12:41;29.20;1.30
1021;DHT22;499;42.648;23.270;2023-08-20T11:15:09;29.10;2.10
1021;DHT22;499;42.648;23.270;2023-08-20T11:17:41;29.10;2.80
1021;DHT22;499;42.648;23.270;2023-08-20T11:20:09;29.30;2.70
1021;DHT22;499;42.648;23.270;2023-08-20T11:22:39;29.20;2.30
1021;DHT22;499;42.648;23.270;2023-08-20T11:25:10;29.20;2.40
1021;DHT22;499;42.648;23.270;2023-08-20T11:27:41;29.30;2.00
1021;DHT22;499;42.648;23.270;2023-08-20T11:30:09;29.30;2.50
1021;DHT22;499;42.648;23.270;2023-08-20T11:32:38;29.20;1.90
1021;DHT22;499;42.648;23.270;2023-08-20T11:35:05;29.30;2.70
1021;DHT22;499;42.648;23.270;2023-08-20T11:37:33;29.30;2.00
1021;DHT22;499;42.648;23.270;2023-08-20T11:40:02;29.30;1.30
1021;DHT22;499;42.648;23.270;2023-08-20T11:42:29;29.30;1.90
1021;DHT22;499;42.648;23.270;2023-08-20T11:44:56;29.40;2.80
1021;DHT22;499;42.648;23.270;2023-08-20T11:47:24;29.40;1.90
1021;DHT22;499;42.648;23.270;2023-08-20T11:50:03;29.50;2.20
1021;DHT22;499;42.648;23.270;2023-08-20T11:52:31;29.60;2.60
1021;DHT22;499;42.648;23.270;2023-08-20T11:54:59;29.70;1.80
1021;DHT22;499;42.648;23.270;2023-08-20T11:57:28;29.70;1.80
1021;DHT22;499;42.648;23.270;2023-08-20T11:59:56;29.90;1.90
1021;DHT22;499;42.648;23.270;2023-08-20T12:02:29;29.80;1.70
1021;DHT22;499;42.648;23.270;2023-08-20T12:04:57;29.80;1.70
1021;DHT22;499;42.648;23.270;2023-08-20T12:07:25;30.00;1.90
1021;DHT22;499;42.648;23.270;2023-08-20T12:09:53;30.00;2.20
1021;DHT22;499;42.648;23.270;2023-08-20T12:12:20;30.00;1.50
1021;DHT22;499;42.648;23.270;2023-08-20T12:14:49;30.00;1.50
1021;DHT22;499;42.648;23.270;2023-08-20T12:17:17;29.90;1.80
1021;DHT22;499;42.648;23.270;2023-08-20T12:19:45;29.90;1.50
1021;DHT22;499;42.648;23.270;2023-08-20T12:22:12;29.90;1.20
1021;DHT22;499;42.648;23.270;2023-08-20T12:24:39;30.00;1.80
1021;DHT22;499;42.648;23.270;2023-08-20T12:27:06;29.90;1.70
1021;DHT22;499;42.648;23.270;2023-08-20T12:29:33;29.90;1.40
1021;DHT22;499;42.648;23.270;2023-08-20T12:32:01;29.90;2.00
1021;DHT22;499;42.648;23.270;2023-08-20T12:34:32;29.80;2.10
1021;DHT22;499;42.648;23.270;2023-08-20T12:37:00;29.70;2.30
1021;DHT22;499;42.648;23.270;2023-08-20T12:39:27;29.80;2.20
1021;DHT22;499;42.648;23.270;2023-08-20T12:41:54;29.80;2.20
1021;DHT22;499;42.648;23.270;2023-08-20T12:44:21;29.80;2.10
1021;DHT22;499;42.648;23.270;2023-08-20T12:46:48;29.90;2.40
1021;DHT22;499;42.648;23.270;2023-08-20T12:49:17;30.10;2.00
1021;DHT22;499;42.648;23.270;2023-08-20T12:51:44;30.00;1.80
1021;DHT22;499;42.648;23.270;2023-08-20T12:54:11;30.10;1.80
1021;DHT22;499;42.648;23.270;2023-08-20T12:56:38;30.30;2.10
1021;DHT22;499;42.648;23.270;2023-08-20T12:59:05;30.30;1.80
1021;DHT22;499;42.648;23.270;2023-08-20T13:01:32;30.30;2.10
1021;DHT22;499;42.648;23.270;2023-08-20T13:03:59;30.20;1.50
1021;DHT22;499;42.648;23.270;2023-08-20T13:06:28;30.30;1.80
1021;DHT22;499;42.648;23.270;2023-08-20T13:08:55;30.40;1.40
1021;DHT22;499;42.648;23.270;2023-08-20T13:11:25;30.40;1.70
1021;DHT22;499;42.648;23.270;2023-08-20T13:13:53;30.50;2.00
1021;DHT22;499;42.648;23.270;2023-08-20T13:16:20;30.50;1.90
1021;DHT22;499;42.648;23.270;2023-08-20T13:18:48;30.40;1.50
1021;DHT22;499;42.648;23.270;2023-08-20T13:21:15;30.40;1.50
1021;DHT22;499;42.648;23.270;2023-08-20T13:23:43;30.30;1.50
1021;DHT22;499;42.648;23.270;2023-08-20T13:26:10;30.20;2.10
1021;DHT22;499;42.648;23.270;2023-08-20T13:28:37;30.20;2.00
1021;DHT22;499;42.648;23.270;2023-08-20T13:31:04;30.20;2.60
1021;DHT22;499;42.648;23.270;2023-08-20T13:33:31;30.20;2.20
1021;DHT22;499;42.648;23.270;2023-08-20T13:35:58;30.30;2.40
1021;DHT22;499;42.648;23.270;2023-08-20T13:38:25;30.40;2.40
1021;DHT22;499;42.648;23.270;2023-08-20T13:40:54;30.40;1.70
1021;DHT22;499;42.648;23.270;2023-08-20T13:43:22;30.40;1.70
1021;DHT22;499;42.648;23.270;2023-08-20T13:45:50;30.30;1.80
1021;DHT22;499;42.648;23.270;2023-08-20T13:48:16;30.20;2.20
1021;DHT22;499;42.648;23.270;2023-08-20T13:50:43;30.20;2.00
1021;DHT22;499;42.648;23.270;2023-08-20T13:53:10;30.10;2.30
1021;DHT22;499;42.648;23.270;2023-08-20T13:55:38;30.10;2.20
1021;DHT22;499;42.648;23.270;2023-08-20T13:58:06;30.10;2.40
1021;DHT22;499;42.648;23.270;2023-08-20T14:00:33;30.00;1.90
1021;DHT22;499;42.648;23.270;2023-08-20T14:03:00;30.10;2.00
1021;DHT22;499;42.648;23.270;2023-08-20T14:05:27;30.20;2.10
1021;DHT22;499;42.648;23.270;2023-08-20T14:07:55;30.40;1.80
1021;DHT22;499;42.648;23.270;2023-08-20T14:10:23;30.30;2.10
1021;DHT22;499;42.648;23.270;2023-08-20T14:12:50;30.20;2.60
1021;DHT22;499;42.648;23.270;2023-08-20T14:15:18;30.30;1.60
1021;DHT22;499;42.648;23.270;2023-08-20T14:17:45;30.20;1.50
1021;DHT22;499;42.648;23.270;2023-08-20T14:20:12;30.20;1.90
1021;DHT22;499;42.648;23.270;2023-08-20T14:22:40;30.30;1.90
1021;DHT22;499;42.648;23.270;2023-08-20T14:25:07;30.20;1.60
1021;DHT22;499;42.648;23.270;2023-08-20T14:27:35;30.20;1.50
1021;DHT22;499;42.648;23.270;2023-08-20T14:30:02;30.10;1.50
1021;DHT22;499;42.648;23.270;2023-08-20T14:32:31;30.20;2.10
1021;DHT22;499;42.648;23.270;2023-08-20T14:34:58;30.20;2.00
1021;DHT22;499;42.648;23.270;2023-08-20T14:37:25;30.20;1.10
1021;DHT22;499;42.648;23.270;2023-08-20T14:39:53;30.10;1.20
1021;DHT22;499;42.648;23.270;2023-08-20T14:42:19;30.10;1.70
1021;DHT22;499;42.648;23.270;2023-08-20T14:44:47;30.10;1.80
1021;DHT22;499;42.648;23.270;2023-08-20T14:47:13;30.10;1.20
1021;DHT22;499;42.648;23.270;2023-08-20T14:49:42;30.10;1.30
1021;DHT22;499;42.648;23.270;2023-08-20T14:52:09;30.10;1.50
1021;DHT22;499;42.648;23.270;2023-08-20T14:54:36;30.10;1.40
1021;DHT22;499;42.648;23.270;2023-08-20T14:57:03;30.00;1.50
1021;DHT22;499;42.648;23.270;2023-08-20T14:59:30;30.00;1.40
1021;DHT22;499;42.648;23.270;2023-08-20T15:01:57;30.00;1.40
1021;DHT22;499;42.648;23.270;2023-08-20T15:04:24;30.10;1.00
1021;DHT22;499;42.648;23.270;2023-08-20T15:06:52;30.10;1.60
1021;DHT22;499;42.648;23.270;2023-08-20T15:09:19;30.10;1.00
1021;DHT22;499;42.648;23.270;2023-08-20T15:11:46;30.10;1.20
1021;DHT22;499;42.648;23.270;2023-08-20T15:14:13;30.20;1.00
1021;DHT22;499;42.648;23.270;2023-08-20T15:16:40;30.30;1.00
1021;DHT22;499;42.648;23.270;2023-08-20T15:19:08;30.30;1.10
1021;DHT22;499;42.648;23.270;2023-08-20T15:21:35;30.30;1.50
1021;DHT22;499;42.648;23.270;2023-08-20T15:24:03;30.40;1.00
1021;DHT22;499;42.648;23.270;2023-08-20T15:26:30;30.20;1.00
1021;DHT22;499;42.648;23.270;2023-08-20T15:28:57;30.30;1.00
1021;DHT22;499;42.648;23.270;2023-08-20T15:31:24;30.50;1.00
1021;DHT22;499;42.648;23.270;2023-08-20T15:33:54;30.60;1.00
1021;DHT22;499;42.648;23.270;2023-08-20T15:36:21;30.90;1.00
1021;DHT22;499;42.648;23.270;2023-08-20T15:38:49;31.00;1.00
1021;DHT22;499;42.648;23.270;2023-08-20T15:41:17;30.90;1.00
1021;DHT22;499;42.648;23.270;2023-08-20T15:43:44;31.00;1.00
1021;DHT22;499;42.648;23.270;2023-08-20T15:46:11;31.00;1.00
1021;DHT22;499;42.648;23.270;2023-08-20T15:48:38;30.80;1.00
1021;DHT22;499;42.648;23.270;2023-08-20T15:51:05;30.80;1.00
1021;DHT22;499;42.648;23.270;2023-08-20T15:53:32;30.50;1.00
1021;DHT22;499;42.648;23.270;2023-08-20T15:55:59;29.90;1.00
1021;DHT22;499;42.648;23.270;2023-08-20T15:58:27;29.80;1.00
1021;DHT22;499;42.648;23.270;2023-08-20T16:00:54;29.70;1.00
1021;DHT22;499;42.648;23.270;2023-08-20T16:03:21;29.50;1.10
1021;DHT22;499;42.648;23.270;2023-08-20T16:05:48;29.40;2.30
1021;DHT22;499;42.648;23.270;2023-08-20T16:08:15;29.10;2.20
1021;DHT22;499;42.648;23.270;2023-08-20T16:10:42;28.90;2.40
1021;DHT22;499;42.648;23.270;2023-08-20T16:13:09;28.80;2.80
1021;DHT22;499;42.648;23.270;2023-08-20T16:15:38;28.80;3.10
1021;DHT22;499;42.648;23.270;2023-08-20T16:18:05;28.70;3.20
1021;DHT22;499;42.648;23.270;2023-08-20T16:20:32;28.70;3.40